sensor_id;sensor_type;location;lat;lon;timestamp;P1;durP1;ratioP1;P2;durP2;ratioP2
74469;SDS011;62918;55.706;37.816;2023-04-01T00:00:29;14.45;;;10.88;;
74469;SDS011;62918;55.706;37.816;2023-04-01T00:00:59;13.60;;;9.85;;
74469;SDS011;62918;55.706;37.816;2023-04-01T00:02:02;12.82;;;9.43;;
74469;SDS011;62918;55.706;37.816;2023-04-01T00:02:33;14.13;;;9.73;;
74469;SDS011;62918;55.706;37.816;2023-04-01T00:03:03;14.00;;;10.23;;
74469;SDS011;62918;55.706;37.816;2023-04-01T00:03:35;13.95;;;9.90;;
74469;SDS011;62918;55.706;37.816;2023-04-01T00:04:06;12.88;;;8.82;;
74469;SDS011;62918;55.706;37.816;2023-04-01T00:04:36;14.40;;;8.77;;
74469;SDS011;62918;55.706;37.816;2023-04-01T00:05:07;14.20;;;10.02;;
74469;SDS011;62918;55.706;37.816;2023-04-01T00:05:38;15.43;;;10.25;;
74469;SDS011;62918;55.706;37.816;2023-04-01T00:06:09;15.18;;;10.55;;
74469;SDS011;62918;55.706;37.816;2023-04-01T00:06:43;15.65;;;9.20;;
74469;SDS011;62918;55.706;37.816;2023-04-01T00:07:13;14.70;;;10.57;;
74469;SDS011;62918;55.706;37.816;2023-04-01T00:07:45;16.05;;;10.88;;
74469;SDS011;62918;55.706;37.816;2023-04-01T00:08:16;14.93;;;10.48;;
74469;SDS011;62918;55.706;37.816;2023-04-01T00:08:47;17.00;;;11.75;;
74469;SDS011;62918;55.706;37.816;2023-04-01T00:09:17;15.60;;;10.93;;
74469;SDS011;62918;55.706;37.816;2023-04-01T00:09:48;17.20;;;10.55;;
74469;SDS011;62918;55.706;37.816;2023-04-01T00:10:19;15.45;;;10.90;;
74469;SDS011;62918;55.706;37.816;2023-04-01T00:10:50;16.67;;;10.45;;
74469;SDS011;62918;55.706;37.816;2023-04-01T00:11:21;14.88;;;10.75;;
74469;SDS011;62918;55.706;37.816;2023-04-01T00:11:52;15.98;;;10.93;;
74469;SDS011;62918;55.706;37.816;2023-04-01T00:12:22;15.60;;;11.10;;
74469;SDS011;62918;55.706;37.816;2023-04-01T00:12:55;16.35;;;9.57;;
74469;SDS011;62918;55.706;37.816;2023-04-01T00:13:25;15.23;;;10.57;;
74469;SDS011;62918;55.706;37.816;2023-04-01T00:13:56;16.75;;;11.25;;
74469;SDS011;62918;55.706;37.816;2023-04-01T00:14:27;14.50;;;10.52;;
74469;SDS011;62918;55.706;37.816;2023-04-01T00:14:59;16.35;;;10.60;;
74469;SDS011;62918;55.706;37.816;2023-04-01T00:15:29;15.57;;;10.73;;
74469;SDS011;62918;55.706;37.816;2023-04-01T00:16:00;15.85;;;11.68;;
74469;SDS011;62918;55.706;37.816;2023-04-01T00:16:31;16.52;;;9.75;;
74469;SDS011;62918;55.706;37.816;2023-04-01T00:17:02;16.45;;;12.23;;
74469;SDS011;62918;55.706;37.816;2023-04-01T00:17:33;15.75;;;9.90;;
74469;SDS011;62918;55.706;37.816;2023-04-01T00:18:04;16.55;;;11.77;;
74469;SDS011;62918;55.706;37.816;2023-04-01T00:18:35;16.52;;;10.63;;
74469;SDS011;62918;55.706;37.816;2023-04-01T00:19:06;15.50;;;11.18;;
74469;SDS011;62918;55.706;37.816;2023-04-01T00:19:36;16.90;;;11.85;;
74469;SDS011;62918;55.706;37.816;2023-04-01T00:20:07;18.35;;;12.50;;
74469;SDS011;62918;55.706;37.816;2023-04-01T00:20:42;17.70;;;11.65;;
74469;SDS011;62918;55.706;37.816;2023-04-01T00:21:14;15.07;;;10.15;;
74469;SDS011;62918;55.706;37.816;2023-04-01T00:21:45;17.13;;;10.82;;
74469;SDS011;62918;55.706;37.816;2023-04-01T00:22:16;17.00;;;12.18;;
74469;SDS011;62918;55.706;37.816;2023-04-01T00:22:47;15.40;;;10.15;;
74469;SDS011;62918;55.706;37.816;2023-04-01T00:23:18;17.20;;;11.68;;
74469;SDS011;62918;55.706;37.816;2023-04-01T00:23:49;17.17;;;10.88;;
74469;SDS011;62918;55.706;37.816;2023-04-01T00:24:20;16.38;;;11.13;;
74469;SDS011;62918;55.706;37.816;2023-04-01T00:24:51;18.58;;;10.65;;
74469;SDS011;62918;55.706;37.816;2023-04-01T00:25:22;18.73;;;12.18;;
74469;SDS011;62918;55.706;37.816;2023-04-01T00:25:53;16.13;;;11.70;;
74469;SDS011;62918;55.706;37.816;2023-04-01T00:26:24;17.13;;;11.65;;
74469;SDS011;62918;55.706;37.816;2023-04-01T00:26:55;17.80;;;11.77;;
74469;SDS011;62918;55.706;37.816;2023-04-01T00:27:25;18.08;;;12.85;;
74469;SDS011;62918;55.706;37.816;2023-04-01T00:27:56;17.73;;;10.85;;
74469;SDS011;62918;55.706;37.816;2023-04-01T00:28:27;18.42;;;12.18;;
74469;SDS011;62918;55.706;37.816;2023-04-01T00:28:58;16.90;;;12.57;;
74469;SDS011;62918;55.706;37.816;2023-04-01T00:29:29;19.27;;;12.48;;
74469;SDS011;62918;55.706;37.816;2023-04-01T00:30:00;17.73;;;12.50;;
74469;SDS011;62918;55.706;37.816;2023-04-01T00:30:31;19.38;;;12.38;;
74469;SDS011;62918;55.706;37.816;2023-04-01T00:31:05;19.10;;;12.85;;
74469;SDS011;62918;55.706;37.816;2023-04-01T00:31:37;19.77;;;13.02;;
74469;SDS011;62918;55.706;37.816;2023-04-01T00:32:08;17.45;;;11.70;;
74469;SDS011;62918;55.706;37.816;2023-04-01T00:32:39;19.70;;;12.75;;
74469;SDS011;62918;55.706;37.816;2023-04-01T00:33:10;18.55;;;12.30;;
74469;SDS011;62918;55.706;37.816;2023-04-01T00:33:41;18.75;;;13.05;;
74469;SDS011;62918;55.706;37.816;2023-04-01T00:34:12;20.90;;;13.25;;
74469;SDS011;62918;55.706;37.816;2023-04-01T00:34:42;19.10;;;13.23;;
74469;SDS011;62918;55.706;37.816;2023-04-01T00:35:14;19.27;;;13.35;;
74469;SDS011;62918;55.706;37.816;2023-04-01T00:35:45;18.40;;;12.48;;
74469;SDS011;62918;55.706;37.816;2023-04-01T00:36:17;19.38;;;12.15;;
74469;SDS011;62918;55.706;37.816;2023-04-01T00:36:51;18.52;;;12.90;;
74469;SDS011;62918;55.706;37.816;2023-04-01T00:37:22;18.05;;;12.65;;
74469;SDS011;62918;55.706;37.816;2023-04-01T00:37:53;20.15;;;13.15;;
74469;SDS011;62918;55.706;37.816;2023-04-01T00:38:23;18.73;;;12.48;;
74469;SDS011;62918;55.706;37.816;2023-04-01T00:38:54;18.60;;;12.50;;
74469;SDS011;62918;55.706;37.816;2023-04-01T00:39:25;19.33;;;12.40;;
74469;SDS011;62918;55.706;37.816;2023-04-01T00:39:58;18.48;;;12.73;;
74469;SDS011;62918;55.706;37.816;2023-04-01T00:40:36;18.20;;;13.15;;
74469;SDS011;62918;55.706;37.816;2023-04-01T00:41:09;18.10;;;11.55;;
74469;SDS011;62918;55.706;37.816;2023-04-01T00:41:44;18.83;;;12.93;;
74469;SDS011;62918;55.706;37.816;2023-04-01T00:42:15;19.50;;;12.35;;
74469;SDS011;62918;55.706;37.816;2023-04-01T00:42:46;17.65;;;11.40;;
74469;SDS011;62918;55.706;37.816;2023-04-01T00:43:18;17.17;;;12.38;;
74469;SDS011;62918;55.706;37.816;2023-04-01T00:43:50;16.98;;;11.90;;
74469;SDS011;62918;55.706;37.816;2023-04-01T00:44:32;18.77;;;12.55;;
74469;SDS011;62918;55.706;37.816;2023-04-01T00:45:53;16.73;;;9.85;;
74469;SDS011;62918;55.706;37.816;2023-04-01T00:46:24;17.08;;;9.57;;
74469;SDS011;62918;55.706;37.816;2023-04-01T00:46:55;16.98;;;11.63;;
74469;SDS011;62918;55.706;37.816;2023-04-01T00:47:26;14.55;;;10.90;;
74469;SDS011;62918;55.706;37.816;2023-04-01T00:47:58;16.13;;;10.40;;
74469;SDS011;62918;55.706;37.816;2023-04-01T00:48:35;16.42;;;11.13;;
74469;SDS011;62918;55.706;37.816;2023-04-01T00:49:08;16.30;;;11.05;;
74469;SDS011;62918;55.706;37.816;2023-04-01T00:49:40;17.15;;;10.75;;
74469;SDS011;62918;55.706;37.816;2023-04-01T00:50:14;17.00;;;10.35;;
74469;SDS011;62918;55.706;37.816;2023-04-01T00:50:46;16.50;;;11.43;;
74469;SDS011;62918;55.706;37.816;2023-04-01T00:51:28;16.52;;;10.68;;
74469;SDS011;62918;55.706;37.816;2023-04-01T00:52:01;17.10;;;11.02;;
74469;SDS011;62918;55.706;37.816;2023-04-01T00:52:33;16.60;;;10.32;;
74469;SDS011;62918;55.706;37.816;2023-04-01T00:53:04;16.08;;;9.70;;
74469;SDS011;62918;55.706;37.816;2023-04-01T00:54:10;15.27;;;10.52;;
74469;SDS011;62918;55.706;37.816;2023-04-01T00:54:42;15.10;;;10.48;;
74469;SDS011;62918;55.706;37.816;2023-04-01T00:55:16;15.98;;;11.10;;
74469;SDS011;62918;55.706;37.816;2023-04-01T00:55:52;18.05;;;12.00;;
74469;SDS011;62918;55.706;37.816;2023-04-01T00:56:48;17.23;;;11.20;;
74469;SDS011;62918;55.706;37.816;2023-04-01T00:57:28;14.32;;;9.93;;
74469;SDS011;62918;55.706;37.816;2023-04-01T00:58:03;15.23;;;10.80;;
74469;SDS011;62918;55.706;37.816;2023-04-01T00:58:38;15.88;;;10.25;;
74469;SDS011;62918;55.706;37.816;2023-04-01T00:59:14;15.25;;;10.73;;
74469;SDS011;62918;55.706;37.816;2023-04-01T01:00:00;14.32;;;9.88;;
74469;SDS011;62918;55.706;37.816;2023-04-01T01:00:31;16.92;;;11.13;;
74469;SDS011;62918;55.706;37.816;2023-04-01T01:01:02;15.45;;;10.35;;
74469;SDS011;62918;55.706;37.816;2023-04-01T01:01:33;16.27;;;10.00;;
74469;SDS011;62918;55.706;37.816;2023-04-01T01:02:07;15.10;;;11.50;;
74469;SDS011;62918;55.706;37.816;2023-04-01T01:02:44;15.93;;;11.55;;
74469;SDS011;62918;55.706;37.816;2023-04-01T01:03:16;15.18;;;11.25;;
74469;SDS011;62918;55.706;37.816;2023-04-01T01:03:47;17.33;;;11.82;;
74469;SDS011;62918;55.706;37.816;2023-04-01T01:04:35;17.92;;;12.77;;
74469;SDS011;62918;55.706;37.816;2023-04-01T01:05:06;15.73;;;10.75;;
74469;SDS011;62918;55.706;37.816;2023-04-01T01:06:39;15.68;;;11.25;;
74469;SDS011;62918;55.706;37.816;2023-04-01T01:07:27;17.15;;;10.90;;
74469;SDS011;62918;55.706;37.816;2023-04-01T01:09:21;14.32;;;9.77;;
74469;SDS011;62918;55.706;37.816;2023-04-01T01:10:13;15.73;;;10.60;;
74469;SDS011;62918;55.706;37.816;2023-04-01T01:10:49;14.25;;;9.90;;
74469;SDS011;62918;55.706;37.816;2023-04-01T01:11:22;14.93;;;10.13;;
74469;SDS011;62918;55.706;37.816;2023-04-01T01:13:13;15.48;;;10.40;;
74469;SDS011;62918;55.706;37.816;2023-04-01T01:14:14;14.95;;;9.70;;
74469;SDS011;62918;55.706;37.816;2023-04-01T01:14:59;14.85;;;10.35;;
74469;SDS011;62918;55.706;37.816;2023-04-01T01:16:29;14.05;;;9.73;;
74469;SDS011;62918;55.706;37.816;2023-04-01T01:18:41;14.70;;;9.85;;
74469;SDS011;62918;55.706;37.816;2023-04-01T01:19:21;15.30;;;10.13;;
74469;SDS011;62918;55.706;37.816;2023-04-01T01:21:15;15.00;;;9.27;;
74469;SDS011;62918;55.706;37.816;2023-04-01T01:21:55;14.63;;;9.95;;
74469;SDS011;62918;55.706;37.816;2023-04-01T01:22:46;15.00;;;9.98;;
74469;SDS011;62918;55.706;37.816;2023-04-01T01:25:59;13.45;;;9.43;;
74469;SDS011;62918;55.706;37.816;2023-04-01T01:27:23;14.93;;;9.40;;
74469;SDS011;62918;55.706;37.816;2023-04-01T01:27:58;14.88;;;10.45;;
74469;SDS011;62918;55.706;37.816;2023-04-01T01:31:01;16.40;;;9.57;;
74469;SDS011;62918;55.706;37.816;2023-04-01T01:34:07;23.35;;;13.85;;
74469;SDS011;62918;55.706;37.816;2023-04-01T01:35:56;21.65;;;13.75;;
74469;SDS011;62918;55.706;37.816;2023-04-01T01:36:32;22.33;;;14.50;;
74469;SDS011;62918;55.706;37.816;2023-04-01T01:37:14;24.10;;;15.27;;
74469;SDS011;62918;55.706;37.816;2023-04-01T01:37:48;25.88;;;16.25;;
74469;SDS011;62918;55.706;37.816;2023-04-01T01:38:24;28.10;;;16.65;;
74469;SDS011;62918;55.706;37.816;2023-04-01T01:39:00;22.73;;;14.18;;
74469;SDS011;62918;55.706;37.816;2023-04-01T01:39:33;24.30;;;14.95;;
74469;SDS011;62918;55.706;37.816;2023-04-01T01:40:07;21.40;;;14.25;;
74469;SDS011;62918;55.706;37.816;2023-04-01T01:40:44;23.75;;;14.73;;
74469;SDS011;62918;55.706;37.816;2023-04-01T01:41:18;24.67;;;15.57;;
74469;SDS011;62918;55.706;37.816;2023-04-01T01:41:52;23.80;;;14.95;;
74469;SDS011;62918;55.706;37.816;2023-04-01T01:42:25;20.85;;;12.88;;
74469;SDS011;62918;55.706;37.816;2023-04-01T01:43:32;18.52;;;11.80;;
74469;SDS011;62918;55.706;37.816;2023-04-01T01:44:08;16.55;;;10.23;;
74469;SDS011;62918;55.706;37.816;2023-04-01T01:44:42;15.55;;;9.57;;
74469;SDS011;62918;55.706;37.816;2023-04-01T01:45:16;14.48;;;9.80;;
74469;SDS011;62918;55.706;37.816;2023-04-01T01:45:52;14.82;;;9.55;;
74469;SDS011;62918;55.706;37.816;2023-04-01T01:46:26;14.18;;;10.77;;
74469;SDS011;62918;55.706;37.816;2023-04-01T01:46:59;16.58;;;10.60;;
74469;SDS011;62918;55.706;37.816;2023-04-01T01:47:30;13.93;;;9.73;;
74469;SDS011;62918;55.706;37.816;2023-04-01T01:48:03;15.65;;;11.57;;
74469;SDS011;62918;55.706;37.816;2023-04-01T01:48:35;15.75;;;11.85;;
74469;SDS011;62918;55.706;37.816;2023-04-01T01:49:07;19.48;;;10.45;;
74469;SDS011;62918;55.706;37.816;2023-04-01T01:49:40;16.42;;;11.52;;
74469;SDS011;62918;55.706;37.816;2023-04-01T01:50:13;17.15;;;12.05;;
74469;SDS011;62918;55.706;37.816;2023-04-01T01:50:45;14.85;;;9.80;;
74469;SDS011;62918;55.706;37.816;2023-04-01T01:51:18;14.60;;;10.50;;
74469;SDS011;62918;55.706;37.816;2023-04-01T01:51:50;14.95;;;10.73;;
74469;SDS011;62918;55.706;37.816;2023-04-01T01:52:21;16.92;;;10.02;;
74469;SDS011;62918;55.706;37.816;2023-04-01T01:53:03;13.60;;;9.30;;
74469;SDS011;62918;55.706;37.816;2023-04-01T01:53:35;15.75;;;11.48;;
74469;SDS011;62918;55.706;37.816;2023-04-01T01:54:06;16.77;;;11.13;;
74469;SDS011;62918;55.706;37.816;2023-04-01T01:54:46;16.20;;;11.13;;
74469;SDS011;62918;55.706;37.816;2023-04-01T01:56:04;14.88;;;11.05;;
74469;SDS011;62918;55.706;37.816;2023-04-01T01:56:35;16.83;;;11.63;;
74469;SDS011;62918;55.706;37.816;2023-04-01T01:57:07;15.35;;;11.55;;
74469;SDS011;62918;55.706;37.816;2023-04-01T01:57:40;15.48;;;11.45;;
74469;SDS011;62918;55.706;37.816;2023-04-01T01:58:23;16.55;;;11.90;;
74469;SDS011;62918;55.706;37.816;2023-04-01T01:58:56;17.90;;;11.63;;
74469;SDS011;62918;55.706;37.816;2023-04-01T01:59:33;16.33;;;11.05;;
74469;SDS011;62918;55.706;37.816;2023-04-01T02:00:08;16.70;;;12.10;;
74469;SDS011;62918;55.706;37.816;2023-04-01T02:00:45;16.65;;;11.98;;
74469;SDS011;62918;55.706;37.816;2023-04-01T02:01:23;20.80;;;12.43;;
74469;SDS011;62918;55.706;37.816;2023-04-01T02:01:56;16.50;;;12.05;;
74469;SDS011;62918;55.706;37.816;2023-04-01T02:02:28;18.65;;;11.68;;
74469;SDS011;62918;55.706;37.816;2023-04-01T02:03:02;18.67;;;12.95;;
74469;SDS011;62918;55.706;37.816;2023-04-01T02:03:35;15.48;;;10.60;;
74469;SDS011;62918;55.706;37.816;2023-04-01T02:04:07;16.20;;;11.63;;
74469;SDS011;62918;55.706;37.816;2023-04-01T02:04:40;18.42;;;11.95;;
74469;SDS011;62918;55.706;37.816;2023-04-01T02:05:21;19.92;;;13.02;;
74469;SDS011;62918;55.706;37.816;2023-04-01T02:05:56;16.27;;;11.52;;
74469;SDS011;62918;55.706;37.816;2023-04-01T02:06:30;17.38;;;12.13;;
74469;SDS011;62918;55.706;37.816;2023-04-01T02:07:08;18.70;;;11.32;;
74469;SDS011;62918;55.706;37.816;2023-04-01T02:07:46;18.45;;;12.70;;
74469;SDS011;62918;55.706;37.816;2023-04-01T02:09:14;16.77;;;12.15;;
74469;SDS011;62918;55.706;37.816;2023-04-01T02:09:48;16.27;;;12.48;;
74469;SDS011;62918;55.706;37.816;2023-04-01T02:10:20;16.63;;;11.88;;
74469;SDS011;62918;55.706;37.816;2023-04-01T02:10:56;17.67;;;11.82;;
74469;SDS011;62918;55.706;37.816;2023-04-01T02:12:16;16.35;;;11.77;;
74469;SDS011;62918;55.706;37.816;2023-04-01T02:12:48;17.38;;;12.45;;
74469;SDS011;62918;55.706;37.816;2023-04-01T02:13:24;15.82;;;10.20;;
74469;SDS011;62918;55.706;37.816;2023-04-01T02:14:03;15.95;;;10.45;;
74469;SDS011;62918;55.706;37.816;2023-04-01T02:14:41;18.98;;;12.63;;
74469;SDS011;62918;55.706;37.816;2023-04-01T02:15:15;17.48;;;11.45;;
74469;SDS011;62918;55.706;37.816;2023-04-01T02:15:48;20.15;;;12.10;;
74469;SDS011;62918;55.706;37.816;2023-04-01T02:16:45;17.52;;;12.18;;
74469;SDS011;62918;55.706;37.816;2023-04-01T02:17:30;17.80;;;11.48;;
74469;SDS011;62918;55.706;37.816;2023-04-01T02:18:03;18.00;;;12.73;;
74469;SDS011;62918;55.706;37.816;2023-04-01T02:18:35;19.90;;;13.38;;
74469;SDS011;62918;55.706;37.816;2023-04-01T02:19:08;17.55;;;12.73;;
74469;SDS011;62918;55.706;37.816;2023-04-01T02:20:24;18.40;;;12.48;;
74469;SDS011;62918;55.706;37.816;2023-04-01T02:20:41;19.40;;;12.18;;
74469;SDS011;62918;55.706;37.816;2023-04-01T02:21:13;19.98;;;12.85;;
74469;SDS011;62918;55.706;37.816;2023-04-01T02:21:45;18.35;;;12.52;;
74469;SDS011;62918;55.706;37.816;2023-04-01T02:22:17;19.08;;;12.63;;
74469;SDS011;62918;55.706;37.816;2023-04-01T02:22:55;19.77;;;12.88;;
74469;SDS011;62918;55.706;37.816;2023-04-01T02:23:29;20.88;;;13.30;;
74469;SDS011;62918;55.706;37.816;2023-04-01T02:24:02;19.92;;;13.90;;
74469;SDS011;62918;55.706;37.816;2023-04-01T02:24:36;19.95;;;14.23;;
74469;SDS011;62918;55.706;37.816;2023-04-01T02:25:13;20.85;;;13.43;;
74469;SDS011;62918;55.706;37.816;2023-04-01T02:25:47;20.08;;;13.88;;
74469;SDS011;62918;55.706;37.816;2023-04-01T02:26:18;20.45;;;14.50;;
74469;SDS011;62918;55.706;37.816;2023-04-01T02:26:50;19.17;;;12.27;;
74469;SDS011;62918;55.706;37.816;2023-04-01T02:27:22;21.02;;;15.07;;
74469;SDS011;62918;55.706;37.816;2023-04-01T02:27:53;20.67;;;14.57;;
74469;SDS011;62918;55.706;37.816;2023-04-01T02:28:26;20.92;;;14.05;;
74469;SDS011;62918;55.706;37.816;2023-04-01T02:29:00;21.63;;;15.13;;
74469;SDS011;62918;55.706;37.816;2023-04-01T02:29:33;18.85;;;12.77;;
74469;SDS011;62918;55.706;37.816;2023-04-01T02:30:04;20.63;;;14.63;;
74469;SDS011;62918;55.706;37.816;2023-04-01T02:30:36;21.70;;;14.98;;
74469;SDS011;62918;55.706;37.816;2023-04-01T02:31:10;21.77;;;13.63;;
74469;SDS011;62918;55.706;37.816;2023-04-01T02:31:42;20.40;;;13.52;;
74469;SDS011;62918;55.706;37.816;2023-04-01T02:32:13;21.98;;;14.68;;
74469;SDS011;62918;55.706;37.816;2023-04-01T02:32:45;22.63;;;13.65;;
74469;SDS011;62918;55.706;37.816;2023-04-01T02:33:18;22.02;;;14.68;;
74469;SDS011;62918;55.706;37.816;2023-04-01T02:33:50;20.00;;;13.45;;
74469;SDS011;62918;55.706;37.816;2023-04-01T02:34:21;21.52;;;15.05;;
74469;SDS011;62918;55.706;37.816;2023-04-01T02:34:54;20.38;;;14.55;;
74469;SDS011;62918;55.706;37.816;2023-04-01T02:35:25;20.33;;;13.15;;
74469;SDS011;62918;55.706;37.816;2023-04-01T02:35:57;20.13;;;14.32;;
74469;SDS011;62918;55.706;37.816;2023-04-01T02:36:28;21.52;;;15.00;;
74469;SDS011;62918;55.706;37.816;2023-04-01T02:36:59;20.73;;;14.02;;
74469;SDS011;62918;55.706;37.816;2023-04-01T02:37:30;18.25;;;13.70;;
74469;SDS011;62918;55.706;37.816;2023-04-01T02:38:00;20.48;;;14.52;;
74469;SDS011;62918;55.706;37.816;2023-04-01T02:38:32;18.90;;;14.25;;
74469;SDS011;62918;55.706;37.816;2023-04-01T02:39:06;21.27;;;13.55;;
74469;SDS011;62918;55.706;37.816;2023-04-01T02:39:38;18.90;;;12.73;;
74469;SDS011;62918;55.706;37.816;2023-04-01T02:40:14;18.40;;;13.32;;
74469;SDS011;62918;55.706;37.816;2023-04-01T02:40:47;19.30;;;13.80;;
74469;SDS011;62918;55.706;37.816;2023-04-01T02:41:19;18.20;;;12.63;;
74469;SDS011;62918;55.706;37.816;2023-04-01T02:41:51;17.40;;;12.48;;
74469;SDS011;62918;55.706;37.816;2023-04-01T02:42:22;18.45;;;13.60;;
74469;SDS011;62918;55.706;37.816;2023-04-01T02:42:52;19.13;;;12.80;;
74469;SDS011;62918;55.706;37.816;2023-04-01T02:43:23;18.83;;;13.48;;
74469;SDS011;62918;55.706;37.816;2023-04-01T02:43:53;19.52;;;12.95;;
74469;SDS011;62918;55.706;37.816;2023-04-01T02:44:25;18.48;;;12.73;;
74469;SDS011;62918;55.706;37.816;2023-04-01T02:44:55;19.52;;;13.10;;
74469;SDS011;62918;55.706;37.816;2023-04-01T02:45:26;19.63;;;13.82;;
74469;SDS011;62918;55.706;37.816;2023-04-01T02:45:56;21.20;;;15.05;;
74469;SDS011;62918;55.706;37.816;2023-04-01T02:46:27;20.65;;;14.70;;
74469;SDS011;62918;55.706;37.816;2023-04-01T02:46:57;20.73;;;15.38;;
74469;SDS011;62918;55.706;37.816;2023-04-01T02:47:28;20.48;;;14.30;;
74469;SDS011;62918;55.706;37.816;2023-04-01T02:47:59;19.30;;;12.20;;
74469;SDS011;62918;55.706;37.816;2023-04-01T02:48:30;19.67;;;14.18;;
74469;SDS011;62918;55.706;37.816;2023-04-01T02:49:00;20.17;;;14.88;;
74469;SDS011;62918;55.706;37.816;2023-04-01T02:49:31;21.42;;;14.38;;
74469;SDS011;62918;55.706;37.816;2023-04-01T02:50:02;18.23;;;12.82;;
74469;SDS011;62918;55.706;37.816;2023-04-01T02:50:34;18.23;;;12.52;;
74469;SDS011;62918;55.706;37.816;2023-04-01T02:51:04;20.15;;;14.32;;
74469;SDS011;62918;55.706;37.816;2023-04-01T02:51:35;21.52;;;13.95;;
74469;SDS011;62918;55.706;37.816;2023-04-01T02:52:06;19.42;;;13.75;;
74469;SDS011;62918;55.706;37.816;2023-04-01T02:52:36;20.02;;;13.27;;
74469;SDS011;62918;55.706;37.816;2023-04-01T02:53:07;20.15;;;14.77;;
74469;SDS011;62918;55.706;37.816;2023-04-01T02:53:38;18.20;;;13.25;;
74469;SDS011;62918;55.706;37.816;2023-04-01T02:54:08;22.67;;;14.27;;
74469;SDS011;62918;55.706;37.816;2023-04-01T02:54:39;20.50;;;13.30;;
74469;SDS011;62918;55.706;37.816;2023-04-01T02:55:10;21.67;;;13.60;;
74469;SDS011;62918;55.706;37.816;2023-04-01T02:55:41;20.80;;;12.75;;
74469;SDS011;62918;55.706;37.816;2023-04-01T02:56:11;22.83;;;14.70;;
74469;SDS011;62918;55.706;37.816;2023-04-01T02:56:42;20.25;;;14.20;;
74469;SDS011;62918;55.706;37.816;2023-04-01T02:57:12;22.33;;;14.35;;
74469;SDS011;62918;55.706;37.816;2023-04-01T02:57:43;20.27;;;14.43;;
74469;SDS011;62918;55.706;37.816;2023-04-01T02:58:13;20.00;;;12.82;;
74469;SDS011;62918;55.706;37.816;2023-04-01T02:58:44;18.98;;;13.05;;
74469;SDS011;62918;55.706;37.816;2023-04-01T02:59:15;20.40;;;13.20;;
74469;SDS011;62918;55.706;37.816;2023-04-01T02:59:45;20.23;;;14.63;;
74469;SDS011;62918;55.706;37.816;2023-04-01T03:00:16;22.77;;;14.68;;
74469;SDS011;62918;55.706;37.816;2023-04-01T03:00:47;21.73;;;14.63;;
74469;SDS011;62918;55.706;37.816;2023-04-01T03:01:18;22.35;;;14.73;;
74469;SDS011;62918;55.706;37.816;2023-04-01T03:01:48;19.42;;;13.95;;
74469;SDS011;62918;55.706;37.816;2023-04-01T03:02:19;19.00;;;12.65;;
74469;SDS011;62918;55.706;37.816;2023-04-01T03:02:49;18.75;;;13.90;;
74469;SDS011;62918;55.706;37.816;2023-04-01T03:03:20;21.77;;;16.05;;
74469;SDS011;62918;55.706;37.816;2023-04-01T03:03:50;19.35;;;13.32;;
74469;SDS011;62918;55.706;37.816;2023-04-01T03:04:21;21.63;;;14.40;;
74469;SDS011;62918;55.706;37.816;2023-04-01T03:04:52;19.38;;;13.27;;
74469;SDS011;62918;55.706;37.816;2023-04-01T03:05:22;20.48;;;14.20;;
74469;SDS011;62918;55.706;37.816;2023-04-01T03:05:53;18.95;;;14.00;;
74469;SDS011;62918;55.706;37.816;2023-04-01T03:06:26;19.80;;;14.63;;
74469;SDS011;62918;55.706;37.816;2023-04-01T03:06:56;19.95;;;14.77;;
74469;SDS011;62918;55.706;37.816;2023-04-01T03:07:27;19.77;;;14.45;;
74469;SDS011;62918;55.706;37.816;2023-04-01T03:07:58;19.77;;;14.23;;
74469;SDS011;62918;55.706;37.816;2023-04-01T03:08:29;19.95;;;14.63;;
74469;SDS011;62918;55.706;37.816;2023-04-01T03:08:59;19.42;;;13.63;;
74469;SDS011;62918;55.706;37.816;2023-04-01T03:09:30;22.77;;;15.55;;
74469;SDS011;62918;55.706;37.816;2023-04-01T03:10:00;21.40;;;13.13;;
74469;SDS011;62918;55.706;37.816;2023-04-01T03:10:31;21.23;;;14.82;;
74469;SDS011;62918;55.706;37.816;2023-04-01T03:11:02;20.23;;;14.35;;
74469;SDS011;62918;55.706;37.816;2023-04-01T03:11:32;21.65;;;14.18;;
74469;SDS011;62918;55.706;37.816;2023-04-01T03:12:03;21.58;;;14.15;;
74469;SDS011;62918;55.706;37.816;2023-04-01T03:12:34;21.30;;;13.00;;
74469;SDS011;62918;55.706;37.816;2023-04-01T03:13:05;18.48;;;12.98;;
74469;SDS011;62918;55.706;37.816;2023-04-01T03:13:36;20.23;;;14.65;;
74469;SDS011;62918;55.706;37.816;2023-04-01T03:14:07;22.20;;;15.40;;
74469;SDS011;62918;55.706;37.816;2023-04-01T03:14:37;19.23;;;12.88;;
74469;SDS011;62918;55.706;37.816;2023-04-01T03:15:09;18.92;;;13.48;;
74469;SDS011;62918;55.706;37.816;2023-04-01T03:15:41;18.27;;;13.32;;
74469;SDS011;62918;55.706;37.816;2023-04-01T03:16:12;22.65;;;14.43;;
74469;SDS011;62918;55.706;37.816;2023-04-01T03:16:42;19.83;;;13.73;;
74469;SDS011;62918;55.706;37.816;2023-04-01T03:17:13;19.70;;;14.13;;
74469;SDS011;62918;55.706;37.816;2023-04-01T03:17:44;18.90;;;13.18;;
74469;SDS011;62918;55.706;37.816;2023-04-01T03:18:14;19.92;;;14.70;;
74469;SDS011;62918;55.706;37.816;2023-04-01T03:18:45;21.45;;;14.88;;
74469;SDS011;62918;55.706;37.816;2023-04-01T03:19:16;18.52;;;13.15;;
74469;SDS011;62918;55.706;37.816;2023-04-01T03:19:46;19.95;;;14.80;;
74469;SDS011;62918;55.706;37.816;2023-04-01T03:20:17;20.23;;;14.95;;
74469;SDS011;62918;55.706;37.816;2023-04-01T03:20:47;20.88;;;13.30;;
74469;SDS011;62918;55.706;37.816;2023-04-01T03:21:19;20.38;;;13.40;;
74469;SDS011;62918;55.706;37.816;2023-04-01T03:21:51;20.58;;;14.35;;
74469;SDS011;62918;55.706;37.816;2023-04-01T03:22:21;18.20;;;12.90;;
74469;SDS011;62918;55.706;37.816;2023-04-01T03:22:52;19.48;;;13.57;;
74469;SDS011;62918;55.706;37.816;2023-04-01T03:23:22;17.95;;;12.95;;
74469;SDS011;62918;55.706;37.816;2023-04-01T03:23:54;18.67;;;12.50;;
74469;SDS011;62918;55.706;37.816;2023-04-01T03:24:25;21.10;;;14.50;;
74469;SDS011;62918;55.706;37.816;2023-04-01T03:24:55;20.52;;;12.48;;
74469;SDS011;62918;55.706;37.816;2023-04-01T03:25:26;24.77;;;14.80;;
74469;SDS011;62918;55.706;37.816;2023-04-01T03:26:29;19.52;;;12.93;;
74469;SDS011;62918;55.706;37.816;2023-04-01T03:26:59;17.80;;;13.25;;
74469;SDS011;62918;55.706;37.816;2023-04-01T03:27:30;19.95;;;13.07;;
74469;SDS011;62918;55.706;37.816;2023-04-01T03:28:00;20.73;;;13.25;;
74469;SDS011;62918;55.706;37.816;2023-04-01T03:28:32;21.27;;;13.73;;
74469;SDS011;62918;55.706;37.816;2023-04-01T03:29:02;20.40;;;13.48;;
74469;SDS011;62918;55.706;37.816;2023-04-01T03:29:33;21.70;;;13.85;;
74469;SDS011;62918;55.706;37.816;2023-04-01T03:30:04;20.40;;;13.38;;
74469;SDS011;62918;55.706;37.816;2023-04-01T03:30:35;21.25;;;14.98;;
74469;SDS011;62918;55.706;37.816;2023-04-01T03:31:06;21.17;;;13.73;;
74469;SDS011;62918;55.706;37.816;2023-04-01T03:31:37;21.42;;;13.60;;
74469;SDS011;62918;55.706;37.816;2023-04-01T03:32:07;21.33;;;15.43;;
74469;SDS011;62918;55.706;37.816;2023-04-01T03:32:38;24.63;;;15.18;;
74469;SDS011;62918;55.706;37.816;2023-04-01T03:33:09;20.63;;;13.63;;